Welcome to Northern Hawkes Bay. New Zealand.
PWS Header
      nz Flag



Hit Counter


W3C Valid W3C Valid logo


    Wairoa

Select any of the Stations below to visit their websites.










Historic Data from Weather Underground
Select the location of interest below. Wairoa is the default. Please have patience, this Data is slow to load in.
Northern Hawkes Bay Historical Data
Daily Summary for June 22, 2017 Units:  Metric    English   Both
« Previous Day
Next Day »
Daily Weekly Monthly Yearly Custom
  High: Low: Average:
Temperature: 14.3 °C 3.7 °C 8.3 °C
Dew Point: 14.2 °C 3.6 °C 8 °C
Humidity: 99% 93% 98%
Wind Speed: 19.5km/h 0.0km/h 3.1km/h
Wind Gust: 27.0km/h - -
Wind- - WSW
Pressure: 1023.9 hPa 1007.3 hPa -
Precipitation: 6.3 mm    
Historical Graphs
 
 
Tabular Data for June 22, 2017
Time Temperature Dew Point Pressure Wind Wind Speed Wind Gust Humidity Rainfall Rate (Hourly) solar
00:02 8.4 °C 7.8 °C 1023.9 hPa NNE 2.6 km/h 5.0 km/h 96% 0.0 mm 0 W/m2
00:07 8.5 °C 7.9 °C 1023.9 hPa NNE 2.6 km/h 6.1 km/h 96% 0.0 mm 0 W/m2
00:12 8.1 °C 7.2 °C 1023.6 hPa NNW 1.1 km/h 6.1 km/h 94% 0.0 mm 0 W/m2
00:17 7.8 °C 6.9 °C 1023.6 hPa NNW 1.1 km/h 5.0 km/h 94% 0.0 mm 0 W/m2
00:22 7.8 °C 6.9 °C 1023.6 hPa North 3.5 km/h 5.0 km/h 94% 0.0 mm 0 W/m2
00:27 7.4 °C 6.3 °C 1023.6 hPa NNW 2.6 km/h 5.0 km/h 93% 0.0 mm 0 W/m2
00:32 7.3 °C 6.4 °C 1023.2 hPa NNW 2.6 km/h 5.0 km/h 94% 0.0 mm 0 W/m2
00:37 7.2 °C 6.3 °C 1023.2 hPa North 1.1 km/h 3.5 km/h 94% 0.0 mm 0 W/m2
00:42 7.1 °C 6.3 °C 1023.2 hPa North 2.6 km/h 3.5 km/h 95% 0.0 mm 0 W/m2
00:47 7.1 °C 6.3 °C 1023.2 hPa North 2.6 km/h 5.0 km/h 95% 0.0 mm 0 W/m2
00:52 6.9 °C 6.3 °C 1023.2 hPa NNE 2.6 km/h 5.0 km/h 96% 0.0 mm 0 W/m2
00:57 6.7 °C 6.1 °C 1022.9 hPa NNW 5.0 km/h 6.1 km/h 96% 0.0 mm 0 W/m2
01:02 6.3 °C 5.7 °C 1022.9 hPa NW 5.0 km/h 6.1 km/h 96% 0.0 mm 0 W/m2
01:07 6.2 °C 5.8 °C 1022.9 hPa NW 3.5 km/h 6.1 km/h 97% 0.0 mm 0 W/m2
01:12 6.3 °C 5.8 °C 1022.6 hPa NW 2.6 km/h 7.2 km/h 97% 0.0 mm 0 W/m2
01:17 6.3 °C 6.0 °C 1022.6 hPa NNW 2.6 km/h 7.2 km/h 98% 0.0 mm 0 W/m2
01:22 6.2 °C 5.9 °C 1022.6 hPa NNW 1.1 km/h 5.0 km/h 98% 0.0 mm 0 W/m2
01:27 6.2 °C 5.9 °C 1022.6 hPa Calm   5.0 km/h 98% 0.0 mm 0 W/m2
01:32 6.1 °C 5.8 °C 1022.6 hPa Calm   2.6 km/h 98% 0.0 mm 0 W/m2
01:37 6.2 °C 5.9 °C 1022.2 hPa North 1.1 km/h 2.6 km/h 98% 0.0 mm 0 W/m2
01:42 6.3 °C 6.0 °C 1022.2 hPa North 1.1 km/h 2.6 km/h 98% 0.0 mm 0 W/m2
01:47 6.3 °C 6.0 °C 1022.2 hPa North 1.1 km/h 3.5 km/h 98% 0.0 mm 0 W/m2
01:52 5.9 °C 5.8 °C 1022.2 hPa North 2.6 km/h 3.5 km/h 99% 0.0 mm 0 W/m2
01:57 5.8 °C 5.7 °C 1022.2 hPa North 2.6 km/h 5.0 km/h 99% 0.0 mm 0 W/m2
02:02 6.0 °C 5.7 °C 1022.2 hPa North 2.6 km/h 5.0 km/h 98% 0.0 mm 0 W/m2
02:07 5.8 °C 5.7 °C 1022.2 hPa North 2.6 km/h 5.0 km/h 99% 0.0 mm 0 W/m2
02:12 5.7 °C 5.6 °C 1022.2 hPa North 2.6 km/h 3.5 km/h 99% 0.0 mm 0 W/m2
02:17 5.5 °C 5.3 °C 1021.9 hPa NNW 5.0 km/h 6.1 km/h 99% 0.0 mm 0 W/m2
02:22 5.2 °C 5.1 °C 1022.2 hPa NW 3.5 km/h 6.1 km/h 99% 0.0 mm 0 W/m2
02:27 5.1 °C 4.9 °C 1022.2 hPa NNW 3.5 km/h 6.1 km/h 99% 0.0 mm 0 W/m2
02:28 5.0 °C 4.8 °C 1022.2 hPa NNW 3.5 km/h 6.1 km/h 99% 0.0 mm 0 W/m2
02:33 5.0 °C 4.8 °C 1022.2 hPa North 3.5 km/h 6.1 km/h 99% 0.0 mm 0 W/m2
02:38 4.9 °C 4.8 °C 1022.2 hPa North 3.5 km/h 6.1 km/h 99% 0.0 mm 0 W/m2
02:43 4.8 °C 4.7 °C 1022.2 hPa North 2.6 km/h 6.1 km/h 99% 0.0 mm 0 W/m2
02:48 4.8 °C 4.7 °C 1022.2 hPa NNE 1.1 km/h 5.0 km/h 99% 0.0 mm 0 W/m2
02:53 4.8 °C 4.7 °C 1021.9 hPa Calm   5.0 km/h 99% 0.0 mm 0 W/m2
02:58 4.7 °C 4.6 °C 1021.6 hPa North 1.1 km/h 2.6 km/h 99% 0.0 mm 0 W/m2
03:03 4.7 °C 4.6 °C 1021.6 hPa North 2.6 km/h 5.0 km/h 99% 0.0 mm 0 W/m2
03:08 4.6 °C 4.4 °C 1021.6 hPa North 3.5 km/h 5.0 km/h 99% 0.0 mm 0 W/m2
03:13 4.5 °C 4.3 °C 1021.6 hPa North 2.6 km/h 5.0 km/h 99% 0.0 mm 0 W/m2
03:18 4.4 °C 4.3 °C 1021.6 hPa North 1.1 km/h 5.0 km/h 99% 0.0 mm 0 W/m2
03:23 4.3 °C 4.2 °C 1021.6 hPa North 3.5 km/h 5.0 km/h 99% 0.0 mm 0 W/m2
03:28 4.3 °C 4.2 °C 1021.2 hPa North 2.6 km/h 5.0 km/h 99% 0.0 mm 0 W/m2
03:33 4.2 °C 4.1 °C 1021.2 hPa North 2.6 km/h 6.1 km/h 99% 0.0 mm 0 W/m2
03:38 4.2 °C 4.1 °C 1021.2 hPa NNW 1.1 km/h 6.1 km/h 99% 0.0 mm 0 W/m2
03:43 4.1 °C 3.9 °C 1021.2 hPa North 1.1 km/h 5.0 km/h 99% 0.0 mm 0 W/m2
03:48 4.0 °C 3.8 °C 1020.9 hPa Calm   3.5 km/h 99% 0.0 mm 0 W/m2
03:53 4.0 °C 3.8 °C 1020.9 hPa North 1.1 km/h 3.5 km/h 99% 0.0 mm 0 W/m2
03:58 4.0 °C 3.8 °C 1020.9 hPa Calm   2.6 km/h 99% 0.0 mm 0 W/m2
04:03 3.9 °C 3.8 °C 1020.5 hPa North 1.1 km/h 2.6 km/h 99% 0.0 mm 0 W/m2
04:08 3.9 °C 3.8 °C 1020.5 hPa NNW 2.6 km/h 5.0 km/h 99% 0.0 mm 0 W/m2
04:13 3.9 °C 3.8 °C 1020.5 hPa NNW 1.1 km/h 5.0 km/h 99% 0.0 mm 0 W/m2
04:18 3.8 °C 3.7 °C 1020.5 hPa North 1.1 km/h 5.0 km/h 99% 0.0 mm 0 W/m2
04:23 3.7 °C 3.6 °C 1020.2 hPa North 3.5 km/h 5.0 km/h 99% 0.0 mm 0 W/m2
04:28 3.8 °C 3.7 °C 1020.2 hPa NNW 5.0 km/h 7.2 km/h 99% 0.0 mm 0 W/m2
04:33 3.9 °C 3.8 °C 1020.2 hPa NNW 5.0 km/h 7.2 km/h 99% 0.0 mm 0 W/m2
04:38 3.9 °C 3.8 °C 1020.2 hPa NNW 5.0 km/h 7.2 km/h 99% 0.0 mm 0 W/m2
04:43 3.9 °C 3.8 °C 1020.2 hPa North 3.5 km/h 7.2 km/h 99% 0.0 mm 0 W/m2
04:48 3.9 °C 3.8 °C 1020.2 hPa North 2.6 km/h 7.2 km/h 99% 0.0 mm 0 W/m2
04:53 3.9 °C 3.8 °C 1019.9 hPa NNW 2.6 km/h 5.0 km/h 99% 0.0 mm 0 W/m2
04:58 3.9 °C 3.8 °C 1019.9 hPa North 2.6 km/h 6.1 km/h 99% 0.0 mm 0 W/m2
05:03 3.9 °C 3.8 °C 1019.9 hPa North 2.6 km/h 7.2 km/h 99% 0.0 mm 0 W/m2
05:08 3.9 °C 3.8 °C 1019.9 hPa North 2.6 km/h 7.2 km/h 99% 0.0 mm 0 W/m2
05:13 3.9 °C 3.8 °C 1019.5 hPa North 2.6 km/h 7.2 km/h 99% 0.0 mm 0 W/m2
05:18 3.9 °C 3.8 °C 1019.5 hPa NNW 2.6 km/h 7.2 km/h 99% 0.0 mm 0 W/m2
05:23 3.8 °C 3.7 °C 1019.5 hPa NNW 3.5 km/h 6.1 km/h 99% 0.0 mm 0 W/m2
05:28 3.8 °C 3.7 °C 1019.5 hPa North 2.6 km/h 6.1 km/h 99% 0.0 mm 0 W/m2
05:33 3.9 °C 3.8 °C 1019.5 hPa North 2.6 km/h 6.1 km/h 99% 0.0 mm 0 W/m2
05:38 3.9 °C 3.8 °C 1019.5 hPa North 3.5 km/h 7.2 km/h 99% 0.0 mm 0 W/m2
05:43 4.0 °C 3.8 °C 1019.2 hPa North 3.5 km/h 7.2 km/h 99% 0.0 mm 0 W/m2
05:48 4.1 °C 3.9 °C 1019.2 hPa North 3.5 km/h 7.2 km/h 99% 0.0 mm 0 W/m2
05:53 4.2 °C 4.1 °C 1019.2 hPa NNW 2.6 km/h 6.1 km/h 99% 0.0 mm 0 W/m2
05:58 4.3 °C 4.2 °C 1019.2 hPa NNW 3.5 km/h 7.2 km/h 99% 0.0 mm 0 W/m2
06:03 4.5 °C 4.3 °C 1019.2 hPa NNW 5.0 km/h 7.2 km/h 99% 0.0 mm 0 W/m2
06:08 4.5 °C 4.3 °C 1019.5 hPa NNW 6.1 km/h 8.7 km/h 99% 0.0 mm 0 W/m2
06:13 4.6 °C 4.4 °C 1019.2 hPa NNW 5.0 km/h 8.7 km/h 99% 0.0 mm 0 W/m2
06:18 4.6 °C 4.4 °C 1019.2 hPa NNW 3.5 km/h 8.7 km/h 99% 0.0 mm 0 W/m2
06:23 4.5 °C 4.3 °C 1018.8 hPa NNW 5.0 km/h 7.2 km/h 99% 0.0 mm 0 W/m2
06:28 4.5 °C 4.3 °C 1019.2 hPa NNW 6.1 km/h 9.7 km/h 99% 0.0 mm 0 W/m2
06:33 4.5 °C 4.3 °C 1019.2 hPa NNW 2.6 km/h 9.7 km/h 99% 0.0 mm 0 W/m2
06:38 4.5 °C 4.3 °C 1018.8 hPa NNW 2.6 km/h 9.7 km/h 99% 0.0 mm 0 W/m2
06:43 4.5 °C 4.3 °C 1018.8 hPa North 2.6 km/h 6.1 km/h 99% 0.0 mm 0 W/m2
06:48 4.5 °C 4.3 °C 1018.8 hPa NNW 2.6 km/h 5.0 km/h 99% 0.0 mm 0 W/m2
06:53 4.5 °C 4.3 °C 1018.8 hPa North 5.0 km/h 6.1 km/h 99% 0.0 mm 0 W/m2
06:58 4.6 °C 4.4 °C 1018.8 hPa NNW 3.5 km/h 7.2 km/h 99% 0.0 mm 0 W/m2
07:03 4.6 °C 4.4 °C 1019.2 hPa NNW 3.5 km/h 7.2 km/h 99% 0.0 mm 0 W/m2
07:04 4.6 °C 4.4 °C 1018.8 hPa NNW 2.6 km/h 7.2 km/h 99% 0.0 mm 0 W/m2
07:09 4.7 °C 4.6 °C 1018.8 hPa North 2.6 km/h 7.2 km/h 99% 0.0 mm 0 W/m2
07:14 4.8 °C 4.7 °C 1018.8 hPa NNW 2.6 km/h 8.7 km/h 99% 0.0 mm 0 W/m2
07:19 4.8 °C 4.7 °C 1018.8 hPa NNW 5.0 km/h 8.7 km/h 99% 0.0 mm 0 W/m2
07:24 4.9 °C 4.8 °C 1018.5 hPa NW 3.5 km/h 8.7 km/h 99% 0.0 mm 0 W/m2
07:29 5.0 °C 4.8 °C 1018.8 hPa NNW 5.0 km/h 8.7 km/h 99% 0.0 mm 0 W/m2
07:34 5.0 °C 4.8 °C 1018.8 hPa NW 5.0 km/h 7.2 km/h 99% 0.0 mm 0 W/m2
07:39 5.0 °C 4.8 °C 1018.8 hPa Calm   7.2 km/h 99% 0.0 mm 0 W/m2
07:44 5.0 °C 4.8 °C 1018.8 hPa North 2.6 km/h 7.2 km/h 99% 0.0 mm 0 W/m2
07:49 5.1 °C 4.9 °C 1018.8 hPa North 5.0 km/h 6.1 km/h 99% 0.0 mm 0 W/m2
07:54 5.2 °C 5.1 °C 1018.5 hPa NW 2.6 km/h 6.1 km/h 99% 0.0 mm 1 W/m2
07:59 5.2 °C 5.1 °C 1018.5 hPa NW 2.6 km/h 6.1 km/h 99% 0.0 mm 2 W/m2
08:05 5.2 °C 5.1 °C 1018.5 hPa NNW 3.5 km/h 6.1 km/h 99% 0.0 mm 4 W/m2
08:10 5.3 °C 5.2 °C 1018.5 hPa North 2.6 km/h 6.1 km/h 99% 0.0 mm 6 W/m2
08:15 5.3 °C 5.2 °C 1018.8 hPa North 1.1 km/h 5.0 km/h 99% 0.0 mm 10 W/m2
08:20 5.4 °C 5.3 °C 1018.8 hPa North 2.6 km/h 5.0 km/h 99% 0.0 mm 59 W/m2
08:25 5.5 °C 5.3 °C 1018.8 hPa NNW 2.6 km/h 3.5 km/h 99% 0.0 mm 33 W/m2
08:30 5.6 °C 5.4 °C 1018.5 hPa North 2.6 km/h 6.1 km/h 99% 0.0 mm 32 W/m2
08:35 5.8 °C 5.7 °C 1018.8 hPa NNE 2.6 km/h 6.1 km/h 99% 0.0 mm 32 W/m2
08:40 5.9 °C 5.8 °C 1018.8 hPa NNE 2.6 km/h 6.1 km/h 99% 0.0 mm 42 W/m2
08:45 6.0 °C 5.7 °C 1018.5 hPa NNE 1.1 km/h 6.1 km/h 98% 0.0 mm 39 W/m2
08:50 6.1 °C 5.8 °C 1018.5 hPa Calm   5.0 km/h 98% 0.0 mm 40 W/m2
08:55 6.2 °C 5.9 °C 1018.8 hPa NNW 2.6 km/h 3.5 km/h 98% 0.0 mm 46 W/m2
09:00 6.3 °C 6.0 °C 1018.5 hPa NNW 3.5 km/h 6.1 km/h 98% 0.0 mm 51 W/m2
09:05 6.4 °C 6.1 °C 1018.5 hPa NNW 1.1 km/h 6.1 km/h 98% 0.0 mm 49 W/m2
09:10 6.6 °C 6.3 °C 1018.5 hPa North 2.6 km/h 6.1 km/h 98% 0.0 mm 51 W/m2
09:15 6.7 °C 6.4 °C 1018.5 hPa North 2.6 km/h 5.0 km/h 98% 0.0 mm 52 W/m2
09:20 6.8 °C 6.5 °C 1018.5 hPa North 3.5 km/h 6.1 km/h 98% 0.0 mm 59 W/m2
09:25 6.9 °C 6.6 °C 1018.5 hPa NNW 3.5 km/h 6.1 km/h 98% 0.0 mm 60 W/m2
09:30 7.2 °C 6.8 °C 1018.5 hPa Calm   7.2 km/h 97% 0.0 mm 65 W/m2
09:35 7.4 °C 6.9 °C 1018.5 hPa NNW 3.5 km/h 7.2 km/h 97% 0.0 mm 66 W/m2
09:40 7.4 °C 6.9 °C 1018.8 hPa NNW 3.5 km/h 5.0 km/h 97% 0.0 mm 63 W/m2
09:45 7.5 °C 7.1 °C 1018.5 hPa North 2.6 km/h 5.0 km/h 97% 0.0 mm 70 W/m2
09:50 7.8 °C 7.3 °C 1018.8 hPa NNW 2.6 km/h 5.0 km/h 97% 0.0 mm 69 W/m2
09:55 7.8 °C 7.3 °C 1018.8 hPa NNW 2.6 km/h 5.0 km/h 97% 0.0 mm 61 W/m2
10:00 7.9 °C 7.4 °C 1018.5 hPa NNW 1.1 km/h 5.0 km/h 97% 0.0 mm 70 W/m2
10:05 8.0 °C 7.8 °C 1018.5 hPa NNW 2.6 km/h 5.0 km/h 99% 0.0 mm 77 W/m2
10:10 8.1 °C 7.9 °C 1018.5 hPa North 1.1 km/h 5.0 km/h 99% 0.0 mm 73 W/m2
10:15 8.2 °C 8.1 °C 1018.8 hPa NNW 1.1 km/h 3.5 km/h 99% 0.0 mm 57 W/m2
10:20 8.2 °C 8.1 °C 1018.8 hPa NW 2.6 km/h 5.0 km/h 99% 0.0 mm 53 W/m2
10:25 8.2 °C 8.1 °C 1018.8 hPa NW 3.5 km/h 6.1 km/h 99% 0.0 mm 55 W/m2
10:30 8.4 °C 8.3 °C 1018.8 hPa NNW 1.1 km/h 6.1 km/h 99% 0.0 mm 69 W/m2
10:35 8.5 °C 8.3 °C 1018.8 hPa NNW 1.1 km/h 6.1 km/h 99% 0.0 mm 75 W/m2
10:40 8.8 °C 8.7 °C 1018.8 hPa NNE 2.6 km/h 5.0 km/h 99% 0.0 mm 67 W/m2
10:45 9.0 °C 8.6 °C 1018.8 hPa North 2.6 km/h 6.1 km/h 97% 0.0 mm 61 W/m2
10:50 9.1 °C 8.7 °C 1018.5 hPa NNW 2.6 km/h 6.1 km/h 97% 0.0 mm 60 W/m2
10:55 9.2 °C 8.8 °C 1018.2 hPa Calm   5.0 km/h 97% 0.0 mm 66 W/m2
11:00 9.3 °C 8.8 °C 1018.5 hPa North 3.5 km/h 5.0 km/h 97% 0.0 mm 62 W/m2
11:06 9.4 °C 8.8 °C 1018.2 hPa NNW 2.6 km/h 6.1 km/h 96% 0.0 mm 49 W/m2
11:11 9.3 °C 8.7 °C 1018.2 hPa NW 5.0 km/h 7.2 km/h 96% 0.0 mm 51 W/m2
11:16 9.2 °C 8.6 °C 1018.2 hPa NW 7.2 km/h 8.7 km/h 96% 0.0 mm 56 W/m2
11:21 9.1 °C 8.5 °C 1018.2 hPa NNW 2.6 km/h 8.7 km/h 96% 0.0 mm 63 W/m2
11:26 9.2 °C 8.6 °C 1018.2 hPa NNW 3.5 km/h 8.7 km/h 96% 0.0 mm 56 W/m2
11:31 9.2 °C 8.6 °C 1017.8 hPa NNW 5.0 km/h 7.2 km/h 96% 0.0 mm 50 W/m2
11:36 9.2 °C 8.6 °C 1017.8 hPa NNW 3.5 km/h 6.1 km/h 96% 0.0 mm 48 W/m2
11:41 9.2 °C 8.6 °C 1017.8 hPa NNW 3.5 km/h 6.1 km/h 96% 0.0 mm 49 W/m2
11:46 9.2 °C 8.6 °C 1017.8 hPa NNW 3.5 km/h 7.2 km/h 96% 0.0 mm 47 W/m2
11:51 9.2 °C 8.6 °C 1017.8 hPa NNW 3.5 km/h 7.2 km/h 96% 0.0 mm 53 W/m2
11:56 9.3 °C 8.7 °C 1017.8 hPa NNW 1.1 km/h 6.1 km/h 96% 0.0 mm 55 W/m2
12:01 9.4 °C 8.9 °C 1017.5 hPa NNE 2.6 km/h 6.1 km/h 97% 0.0 mm 59 W/m2
12:06 9.5 °C 9.1 °C 1017.5 hPa North 6.1 km/h 8.7 km/h 97% 0.0 mm 59 W/m2
12:11 9.5 °C 8.9 °C 1017.5 hPa NNW 5.0 km/h 8.7 km/h 96% 0.0 mm 61 W/m2
12:16 9.5 °C 8.9 °C 1017.5 hPa NNW 7.2 km/h 8.7 km/h 96% 0.0 mm 59 W/m2
12:21 9.5 °C 8.9 °C 1017.2 hPa NNW 2.6 km/h 8.7 km/h 96% 0.0 mm 71 W/m2
12:26 9.6 °C 9.0 °C 1017.2 hPa North 3.5 km/h 8.7 km/h 96% 0.0 mm 69 W/m2
12:31 9.6 °C 9.0 °C 1017.2 hPa North 1.1 km/h 7.2 km/h 96% 0.0 mm 62 W/m2
12:36 9.8 °C 9.2 °C 1016.8 hPa North 1.1 km/h 6.1 km/h 96% 0.0 mm 62 W/m2
12:41 9.9 °C 9.3 °C 1016.8 hPa NNW 1.1 km/h 5.0 km/h 96% 0.0 mm 55 W/m2
12:46 10.0 °C 9.2 °C 1016.8 hPa NNW 1.1 km/h 5.0 km/h 95% 0.0 mm 50 W/m2
12:51 10.0 °C 9.1 °C 1016.8 hPa North 2.6 km/h 5.0 km/h 94% 0.0 mm 54 W/m2
12:56 10.1 °C 9.2 °C 1016.8 hPa North 1.1 km/h 3.5 km/h 94% 0.0 mm 47 W/m2
13:01 10.1 °C 9.2 °C 1016.5 hPa North 2.6 km/h 5.0 km/h 94% 0.0 mm 47 W/m2
13:06 10.1 °C 9.2 °C 1016.5 hPa NNW 5.0 km/h 6.1 km/h 94% 0.0 mm 55 W/m2
13:11 10.2 °C 9.3 °C 1016.5 hPa North 3.5 km/h 6.1 km/h 94% 0.0 mm 43 W/m2
13:16 10.2 °C 9.3 °C 1016.5 hPa NNW 2.6 km/h 6.1 km/h 94% 0.0 mm 42 W/m2
13:21 10.2 °C 9.3 °C 1016.1 hPa NW 2.6 km/h 6.1 km/h 94% 0.0 mm 41 W/m2
13:26 10.1 °C 9.2 °C 1016.1 hPa NW 3.5 km/h 7.2 km/h 94% 0.0 mm 40 W/m2
13:31 10.0 °C 9.1 °C 1016.1 hPa NW 2.6 km/h 7.2 km/h 94% 0.0 mm 40 W/m2
13:36 10.0 °C 9.1 °C 1016.1 hPa NW 5.0 km/h 7.2 km/h 94% 0.0 mm 39 W/m2
13:41 9.9 °C 9.3 °C 1016.1 hPa NNW 2.6 km/h 7.2 km/h 96% 0.0 mm 44 W/m2
13:46 9.9 °C 9.3 °C 1016.1 hPa NNW 6.1 km/h 7.2 km/h 96% 0.0 mm 45 W/m2
13:51 9.9 °C 9.3 °C 1016.1 hPa NNW 2.6 km/h 7.2 km/h 96% 0.0 mm 36 W/m2
13:56 10.0 °C 9.4 °C 1016.1 hPa NNW 3.5 km/h 7.2 km/h 96% 0.0 mm 36 W/m2
14:01 10.0 °C 9.4 °C 1016.1 hPa NNW 5.0 km/h 6.1 km/h 96% 0.0 mm 36 W/m2
14:06 10.0 °C 9.4 °C 1016.1 hPa North 2.6 km/h 6.1 km/h 96% 0.0 mm 33 W/m2
14:11 10.0 °C 9.4 °C 1016.1 hPa North 3.5 km/h 5.0 km/h 96% 0.0 mm 33 W/m2
14:16 10.0 °C 9.4 °C 1015.8 hPa NNW 1.1 km/h 5.0 km/h 96% 0.3 mm 26 W/m2
14:21 10.0 °C 9.4 °C 1015.8 hPa Calm   5.0 km/h 96% 0.3 mm 24 W/m2
14:26 10.0 °C 9.4 °C 1015.5 hPa NW 1.1 km/h 3.5 km/h 96% 0.3 mm 29 W/m2
14:31 10.0 °C 9.4 °C 1015.8 hPa WNW 2.6 km/h 3.5 km/h 96% 0.3 mm 44 W/m2
14:36 10.0 °C 9.4 °C 1015.5 hPa NW 2.6 km/h 3.5 km/h 96% 0.3 mm 57 W/m2
14:41 10.0 °C 9.6 °C 1015.5 hPa Calm   3.5 km/h 97% 0.3 mm 49 W/m2
14:46 10.0 °C 9.6 °C 1015.5 hPa Calm   3.5 km/h 97% 0.3 mm 50 W/m2
14:51 10.1 °C 9.7 °C 1015.5 hPa North 1.1 km/h 3.5 km/h 97% 0.3 mm 52 W/m2
14:56 10.1 °C 9.8 °C 1015.5 hPa Calm   5.0 km/h 98% 0.3 mm 54 W/m2
15:01 10.2 °C 9.9 °C 1015.5 hPa North 1.1 km/h 5.0 km/h 98% 0.3 mm 41 W/m2
15:06 10.2 °C 9.9 °C 1015.5 hPa NNW 2.6 km/h 5.0 km/h 98% 0.3 mm 44 W/m2
15:11 10.2 °C 10.1 °C 1015.5 hPa Calm   5.0 km/h 99% 0.3 mm 49 W/m2
15:16 10.2 °C 10.1 °C 1014.8 hPa NNW 1.1 km/h 3.5 km/h 99% 0.0 mm 48 W/m2
15:21 10.3 °C 10.2 °C 1015.1 hPa NNW 2.6 km/h 3.5 km/h 99% 0.0 mm 40 W/m2
15:26 10.2 °C 10.1 °C 1014.8 hPa NW 2.6 km/h 6.1 km/h 99% 0.0 mm 31 W/m2
15:31 10.2 °C 10.1 °C 1015.1 hPa NW 1.1 km/h 6.1 km/h 99% 0.0 mm 28 W/m2
15:36 10.2 °C 10.1 °C 1015.1 hPa North 1.1 km/h 3.5 km/h 99% 0.0 mm 26 W/m2
15:41 10.1 °C 9.9 °C 1015.1 hPa North 1.1 km/h 5.0 km/h 99% 0.0 mm 21 W/m2
15:46 10.1 °C 9.9 °C 1015.1 hPa North 2.6 km/h 5.0 km/h 99% 0.0 mm 18 W/m2
15:51 10.1 °C 9.9 °C 1014.8 hPa North 2.6 km/h 3.5 km/h 99% 0.0 mm 17 W/m2
15:56 10.1 °C 9.9 °C 1014.8 hPa NNW 2.6 km/h 3.5 km/h 99% 0.0 mm 12 W/m2
16:01 10.0 °C 9.8 °C 1014.8 hPa NNW 2.6 km/h 3.5 km/h 99% 0.0 mm 9 W/m2
16:06 10.0 °C 9.8 °C 1014.8 hPa NNW 1.1 km/h 3.5 km/h 99% 0.0 mm 4 W/m2
16:11 10.0 °C 9.8 °C 1014.8 hPa Calm   2.6 km/h 99% 0.0 mm 2 W/m2
16:16 9.9 °C 9.8 °C 1014.8 hPa NW 1.1 km/h 2.6 km/h 99% 0.0 mm 1 W/m2
16:21 9.9 °C 9.8 °C 1014.8 hPa NNW 1.1 km/h 3.5 km/h 99% 0.0 mm 0 W/m2
16:26 9.9 °C 9.8 °C 1015.1 hPa North 1.1 km/h 3.5 km/h 99% 0.0 mm 0 W/m2
16:31 9.9 °C 9.8 °C 1015.1 hPa North 2.6 km/h 5.0 km/h 99% 0.0 mm 0 W/m2
16:36 9.9 °C 9.8 °C 1015.1 hPa North 1.1 km/h 5.0 km/h 99% 0.3 mm 0 W/m2
16:41 9.9 °C 9.8 °C 1014.8 hPa North 1.1 km/h 5.0 km/h 99% 0.3 mm 0 W/m2
16:46 9.9 °C 9.8 °C 1014.8 hPa Calm   3.5 km/h 99% 0.3 mm 0 W/m2
16:51 9.8 °C 9.7 °C 1014.8 hPa Calm   3.5 km/h 99% 0.3 mm 0 W/m2
16:56 9.8 °C 9.7 °C 1014.8 hPa NW 1.1 km/h 3.5 km/h 99% 0.3 mm 0 W/m2
17:01 9.8 °C 9.7 °C 1014.8 hPa Calm   3.5 km/h 99% 0.3 mm 0 W/m2
17:06 9.8 °C 9.7 °C 1014.8 hPa Calm   2.6 km/h 99% 0.3 mm 0 W/m2
17:11 9.8 °C 9.7 °C 1014.8 hPa Calm   2.6 km/h 99% 0.3 mm 0 W/m2
17:16 9.8 °C 9.7 °C 1014.4 hPa NNE 1.1 km/h 3.5 km/h 99% 0.3 mm 0 W/m2
17:21 9.8 °C 9.7 °C 1014.8 hPa NNE 1.1 km/h 3.5 km/h 99% 0.3 mm 0 W/m2
17:26 9.9 °C 9.8 °C 1014.8 hPa NE 1.1 km/h 3.5 km/h 99% 0.3 mm 0 W/m2
17:31 9.9 °C 9.8 °C 1014.4 hPa NE 1.1 km/h 3.5 km/h 99% 0.3 mm 0 W/m2
17:36 9.9 °C 9.8 °C 1014.8 hPa NNE 1.1 km/h 3.5 km/h 99% 0.0 mm 0 W/m2
17:41 9.9 °C 9.8 °C 1014.8 hPa Calm   3.5 km/h 99% 0.0 mm 0 W/m2
17:46 9.9 °C 9.8 °C 1014.4 hPa Calm   3.5 km/h 99% 0.0 mm 0 W/m2
17:51 9.9 °C 9.8 °C 1014.4 hPa North 1.1 km/h 2.6 km/h 99% 0.0 mm 0 W/m2
17:56 10.0 °C 9.8 °C 1014.4 hPa Calm   3.5 km/h 99% 0.0 mm 0 W/m2
18:13 10.0 °C 9.8 °C 1014.4 hPa North 1.1 km/h 3.5 km/h 99% 0.3 mm 0 W/m2
18:18 10.0 °C 9.8 °C 1014.1 hPa Calm   3.5 km/h 99% 0.3 mm 0 W/m2
18:23 10.0 °C 9.8 °C 1014.4 hPa North 1.1 km/h 3.5 km/h 99% 0.3 mm 0 W/m2
18:28 10.0 °C 9.8 °C 1014.1 hPa NNE 1.1 km/h 2.6 km/h 99% 0.5 mm 0 W/m2
18:33 10.0 °C 9.8 °C 1014.1 hPa NNE 2.6 km/h 5.0 km/h 99% 0.5 mm 0 W/m2
18:38 10.1 °C 9.9 °C 1014.1 hPa North 1.1 km/h 5.0 km/h 99% 0.5 mm 0 W/m2
18:43 10.2 °C 10.1 °C 1014.1 hPa NNW 2.6 km/h 8.7 km/h 99% 0.5 mm 0 W/m2
18:49 10.3 °C 10.2 °C 1013.8 hPa NNE 2.6 km/h 8.7 km/h 99% 0.5 mm 0 W/m2
18:54 10.3 °C 10.2 °C 1014.1 hPa NNW 1.1 km/h 6.1 km/h 99% 0.5 mm 0 W/m2
18:59 10.3 °C 10.2 °C 1013.8 hPa NNW 6.1 km/h 8.7 km/h 99% 0.5 mm 0 W/m2
19:04 10.6 °C 10.4 °C 1013.8 hPa NW 2.6 km/h 8.7 km/h 99% 0.3 mm 0 W/m2
19:09 10.6 °C 10.4 °C 1013.8 hPa NNE 5.0 km/h 8.7 km/h 99% 0.5 mm 0 W/m2
19:14 10.5 °C 10.3 °C 1013.8 hPa Calm   8.7 km/h 99% 1.0 mm 0 W/m2
19:19 10.5 °C 10.3 °C 1013.8 hPa NNW 2.6 km/h 6.1 km/h 99% 1.0 mm 0 W/m2
19:24 10.6 °C 10.4 °C 1013.8 hPa NW 1.1 km/h 5.0 km/h 99% 0.5 mm 0 W/m2
19:29 10.5 °C 10.3 °C 1013.8 hPa NNW 2.6 km/h 5.0 km/h 99% 1.0 mm 0 W/m2
19:34 10.5 °C 10.3 °C 1013.4 hPa NNW 2.6 km/h 5.0 km/h 99% 1.0 mm 0 W/m2
19:39 10.5 °C 10.3 °C 1013.4 hPa North 1.1 km/h 3.5 km/h 99% 1.0 mm 0 W/m2
19:44 10.4 °C 10.3 °C 1013.4 hPa NNW 1.1 km/h 3.5 km/h 99% 1.0 mm 0 W/m2
19:49 10.4 °C 10.3 °C 1013.4 hPa NNW 1.1 km/h 3.5 km/h 99% 1.3 mm 0 W/m2
19:54 10.4 °C 10.3 °C 1013.4 hPa NNW 2.6 km/h 5.0 km/h 99% 1.3 mm 0 W/m2
19:59 10.3 °C 10.2 °C 1013.4 hPa NNW 3.5 km/h 6.1 km/h 99% 1.3 mm 0 W/m2
20:04 10.3 °C 10.2 °C 1013.4 hPa NNW 1.1 km/h 6.1 km/h 99% 1.3 mm 0 W/m2
20:09 10.3 °C 10.2 °C 1013.4 hPa North 1.1 km/h 5.0 km/h 99% 1.3 mm 0 W/m2
20:14 10.3 °C 10.2 °C 1013.1 hPa North 1.1 km/h 3.5 km/h 99% 1.0 mm 0 W/m2
20:19 10.2 °C 10.1 °C 1013.1 hPa North 1.1 km/h 5.0 km/h 99% 1.0 mm 0 W/m2
20:24 10.2 °C 10.1 °C 1013.1 hPa NNW 2.6 km/h 5.0 km/h 99% 1.3 mm 0 W/m2
20:29 10.2 °C 10.1 °C 1012.8 hPa NNW 1.1 km/h 3.5 km/h 99% 1.0 mm 0 W/m2
20:34 10.2 °C 10.1 °C 1012.8 hPa Calm   3.5 km/h 99% 1.0 mm 0 W/m2
20:39 10.2 °C 10.1 °C 1012.8 hPa NW 1.1 km/h 2.6 km/h 99% 1.0 mm 0 W/m2
20:45 10.1 °C 9.9 °C 1012.8 hPa Calm   2.6 km/h 99% 1.0 mm 0 W/m2
21:04 10.2 °C 10.1 °C 1012.4 hPa Calm   3.5 km/h 99% 1.0 mm 0 W/m2
21:09 10.2 °C 10.1 °C 1012.1 hPa Calm   3.5 km/h 99% 0.5 mm 0 W/m2
21:14 10.3 °C 10.2 °C 1012.1 hPa SSW 3.5 km/h 6.1 km/h 99% 0.5 mm 0 W/m2
21:31 12.1 °C 11.7 °C 1011.7 hPa SSE 3.5 km/h 9.7 km/h 97% 0.5 mm 0 W/m2
21:36 12.4 °C 11.9 °C 1011.7 hPa SE 8.7 km/h 12.2 km/h 97% 0.5 mm 0 W/m2
21:41 12.7 °C 12.2 °C 1011.4 hPa ESE 11.1 km/h 17.2 km/h 97% 1.0 mm 0 W/m2
21:46 12.7 °C 12.2 °C 1011.4 hPa SE 6.1 km/h 17.2 km/h 97% 0.5 mm 0 W/m2
21:51 12.5 °C 12.1 °C 1011.1 hPa SSE 9.7 km/h 18.3 km/h 97% 1.0 mm 0 W/m2
21:56 12.5 °C 12.1 °C 1010.7 hPa South 5.0 km/h 18.3 km/h 97% 1.0 mm 0 W/m2
22:01 12.5 °C 12.1 °C 1010.7 hPa SSE 7.2 km/h 18.3 km/h 97% 1.3 mm 0 W/m2
22:06 12.7 °C 12.2 °C 1010.7 hPa ESE 8.7 km/h 23.3 km/h 97% 1.5 mm 0 W/m2
22:11 12.8 °C 12.3 °C 1010.4 hPa SE 12.2 km/h 23.3 km/h 97% 1.8 mm 0 W/m2
22:16 13.1 °C 12.9 °C 1010.0 hPa SE 8.7 km/h 20.9 km/h 99% 2.0 mm 0 W/m2
22:21 13.0 °C 12.8 °C 1010.0 hPa SE 8.7 km/h 24.5 km/h 99% 2.0 mm 0 W/m2
22:26 13.1 °C 12.9 °C 1010.0 hPa SSE 7.2 km/h 24.5 km/h 99% 2.0 mm 0 W/m2
22:31 13.3 °C 13.2 °C 1009.7 hPa SSE 7.2 km/h 20.9 km/h 99% 2.0 mm 0 W/m2
22:36 13.5 °C 13.3 °C 1009.7 hPa SE 9.7 km/h 20.9 km/h 99% 2.3 mm 0 W/m2
22:41 13.7 °C 13.6 °C 1009.7 hPa ESE 9.7 km/h 20.9 km/h 99% 2.0 mm 0 W/m2
22:46 13.7 °C 13.6 °C 1009.4 hPa SE 6.1 km/h 21.9 km/h 99% 2.0 mm 0 W/m2
22:51 13.7 °C 13.6 °C 1009.4 hPa ESE 6.1 km/h 21.9 km/h 99% 1.8 mm 0 W/m2
22:56 13.7 °C 13.6 °C 1009.0 hPa SE 19.5 km/h 21.9 km/h 99% 1.8 mm 0 W/m2
23:01 13.7 °C 13.6 °C 1009.0 hPa SE 11.1 km/h 21.9 km/h 99% 1.8 mm 0 W/m2
23:06 13.7 °C 13.6 °C 1008.7 hPa ESE 9.7 km/h 27.0 km/h 99% 1.5 mm 0 W/m2
23:11 13.7 °C 13.6 °C 1008.7 hPa ESE 15.8 km/h 27.0 km/h 99% 1.3 mm 0 W/m2
23:16 13.7 °C 13.6 °C 1008.4 hPa SE 9.7 km/h 23.3 km/h 99% 1.0 mm 0 W/m2
23:21 13.7 °C 13.6 °C 1008.4 hPa SE 9.7 km/h 24.5 km/h 99% 0.5 mm 0 W/m2
23:26 13.7 °C 13.6 °C 1008.0 hPa SE 8.7 km/h 24.5 km/h 99% 0.5 mm 0 W/m2
23:31 13.7 °C 13.6 °C 1008.0 hPa ESE 9.7 km/h 24.5 km/h 99% 0.5 mm 0 W/m2
23:36 13.9 °C 13.8 °C 1007.7 hPa ESE 13.4 km/h 24.5 km/h 99% 0.3 mm 0 W/m2
23:41 13.9 °C 13.8 °C 1007.7 hPa ESE 9.7 km/h 24.5 km/h 99% 0.3 mm 0 W/m2
23:46 14.0 °C 13.8 °C 1007.7 hPa East 15.8 km/h 24.5 km/h 99% 0.3 mm 0 W/m2
23:51 14.1 °C 13.9 °C 1007.3 hPa ESE 13.4 km/h 23.3 km/h 99% 0.3 mm 0 W/m2
23:56 14.3 °C 14.2 °C 1007.3 hPa ESE 6.1 km/h 21.9 km/h 99% 0.0 mm 0 W/m2
Northern Hawkes Bay. New Zealand Historic Data
Compliments of Weather Underground - 2.25 mb